createdAt,value
2018-10-12T00:00:16.911Z,1001.7
2018-10-12T00:01:18.304Z,1001.8
2018-10-12T00:02:19.691Z,1001.8
2018-10-12T00:03:21.081Z,1001.8
2018-10-12T00:04:22.474Z,1001.9
2018-10-12T00:05:23.867Z,1001.8
2018-10-12T00:06:25.260Z,1001.9
2018-10-12T00:07:26.656Z,1001.8
2018-10-12T00:08:28.050Z,1001.8
2018-10-12T00:09:29.441Z,1001.8
2018-10-12T00:10:30.947Z,1001.8
2018-10-12T00:11:32.385Z,1001.8
2018-10-12T00:12:33.779Z,1001.8
2018-10-12T00:13:35.201Z,1001.8
2018-10-12T00:14:36.592Z,1001.8
2018-10-12T00:15:37.990Z,1001.7
2018-10-12T00:16:39.379Z,1001.8
2018-10-12T00:17:40.770Z,1001.8
2018-10-12T00:18:42.164Z,1001.8
2018-10-12T00:19:43.555Z,1001.8
2018-10-12T00:20:44.947Z,1001.8
2018-10-12T00:21:46.342Z,1001.9
2018-10-12T00:22:47.730Z,1002.0
2018-10-12T00:23:49.120Z,1001.9
2018-10-12T00:24:50.510Z,1001.9
2018-10-12T00:25:51.918Z,1002.0
2018-10-12T00:26:53.317Z,1001.9
2018-10-12T00:27:54.714Z,1001.9
2018-10-12T00:28:56.104Z,1001.9
2018-10-12T00:29:57.501Z,1001.9
2018-10-12T00:30:58.888Z,1002.0
2018-10-12T00:32:00.278Z,1001.9
2018-10-12T00:33:01.670Z,1002.0
2018-10-12T00:34:03.061Z,1002.0
2018-10-12T00:35:04.455Z,1002.0
2018-10-12T00:36:05.845Z,1002.0
2018-10-12T00:37:07.242Z,1002.1
2018-10-12T00:38:08.628Z,1002.0
2018-10-12T00:39:10.025Z,1002.0
2018-10-12T00:40:11.415Z,1002.1
2018-10-12T00:41:12.804Z,1002.1
2018-10-12T00:42:14.195Z,1002.1
2018-10-12T00:43:15.593Z,1002.0
2018-10-12T00:44:16.986Z,1002.0
2018-10-12T00:45:18.376Z,1002.0
2018-10-12T00:46:19.769Z,1002.1
2018-10-12T00:47:21.160Z,1002.0
2018-10-12T00:48:22.551Z,1002.1
2018-10-12T00:49:23.944Z,1002.0
2018-10-12T00:50:25.336Z,1002.1
2018-10-12T00:51:26.729Z,1002.0
2018-10-12T00:52:28.117Z,1002.0
2018-10-12T00:53:29.511Z,1002.0
2018-10-12T00:54:30.910Z,1001.9
2018-10-12T00:55:32.299Z,1002.0
2018-10-12T00:56:33.689Z,1001.9
2018-10-12T00:57:35.080Z,1001.9
2018-10-12T00:58:36.473Z,1001.8
2018-10-12T00:59:37.965Z,1001.8
2018-10-12T01:00:39.361Z,1001.8
2018-10-12T01:01:40.753Z,1001.8
2018-10-12T01:02:42.143Z,1001.8
2018-10-12T01:03:43.536Z,1001.8
2018-10-12T01:04:44.931Z,1001.9
2018-10-12T01:05:46.329Z,1001.9
2018-10-12T01:06:47.775Z,1001.9
2018-10-12T01:07:49.107Z,1001.9
2018-10-12T01:08:50.496Z,1002.0
2018-10-12T01:09:51.890Z,1001.9
2018-10-12T01:10:53.281Z,1001.9
2018-10-12T01:11:54.675Z,1001.9
2018-10-12T01:12:56.068Z,1002.0
2018-10-12T01:13:57.457Z,1001.9
2018-10-12T01:14:58.844Z,1001.9
2018-10-12T01:16:00.238Z,1002.0
2018-10-12T01:17:01.628Z,1001.9
2018-10-12T01:18:03.020Z,1001.9
2018-10-12T01:19:04.416Z,1001.9
2018-10-12T01:20:05.811Z,1002.0
2018-10-12T01:21:07.200Z,1002.1
2018-10-12T01:22:08.592Z,1002.1
2018-10-12T01:23:09.983Z,1002.0
2018-10-12T01:24:11.371Z,1002.1
2018-10-12T01:25:12.763Z,1002.1
2018-10-12T01:26:14.154Z,1002.1
2018-10-12T01:27:15.547Z,1002.2
2018-10-12T01:28:16.943Z,1002.2
2018-10-12T01:29:18.333Z,1002.2
2018-10-12T01:30:19.723Z,1002.3
2018-10-12T01:31:21.113Z,1002.2
2018-10-12T01:32:22.507Z,1002.2
2018-10-12T01:33:23.896Z,1002.2
2018-10-12T01:34:25.292Z,1002.2
2018-10-12T01:35:26.682Z,1002.3
2018-10-12T01:36:28.071Z,1002.4
2018-10-12T01:37:29.464Z,1002.4
2018-10-12T01:38:30.903Z,1002.4
2018-10-12T01:39:32.305Z,1002.5
2018-10-12T01:40:33.695Z,1002.5
2018-10-12T01:41:35.091Z,1002.5
2018-10-12T01:42:36.477Z,1002.5
2018-10-12T01:43:37.878Z,1002.5
2018-10-12T01:44:39.260Z,1002.5
2018-10-12T01:45:40.647Z,1002.5
2018-10-12T01:46:42.039Z,1002.6
2018-10-12T01:47:43.513Z,1002.5
2018-10-12T01:48:44.997Z,1002.6
2018-10-12T01:49:46.390Z,1002.6
2018-10-12T01:50:47.784Z,1002.6
2018-10-12T01:51:49.174Z,1002.6
2018-10-12T01:52:50.568Z,1002.5
2018-10-12T01:53:51.960Z,1002.6
2018-10-12T01:54:53.354Z,1002.6
2018-10-12T01:55:54.751Z,1002.6
2018-10-12T01:56:56.155Z,1002.6
2018-10-12T01:57:57.546Z,1002.6
2018-10-12T01:58:58.943Z,1002.6
2018-10-12T02:00:00.332Z,1002.5
2018-10-12T02:01:01.721Z,1002.6
2018-10-12T02:02:03.118Z,1002.5
2018-10-12T02:03:04.551Z,1002.6
2018-10-12T02:04:05.939Z,1002.5
2018-10-12T02:05:07.326Z,1002.5
2018-10-12T02:06:08.715Z,1002.5
2018-10-12T02:07:10.110Z,1002.5
2018-10-12T02:08:11.503Z,1002.5
2018-10-12T02:09:12.895Z,1002.5
2018-10-12T02:10:14.288Z,1002.5
2018-10-12T02:11:15.679Z,1002.5
2018-10-12T02:12:17.065Z,1002.5
2018-10-12T02:13:18.461Z,1002.5
2018-10-12T02:14:19.851Z,1002.5
2018-10-12T02:15:21.244Z,1002.5
2018-10-12T02:16:22.634Z,1002.5
2018-10-12T02:17:24.030Z,1002.5
2018-10-12T02:18:25.423Z,1002.5
2018-10-12T02:19:26.816Z,1002.5
2018-10-12T02:20:28.207Z,1002.6
2018-10-12T02:21:29.598Z,1002.7
2018-10-12T02:22:30.991Z,1002.7
2018-10-12T02:23:32.382Z,1002.7
2018-10-12T02:24:33.779Z,1002.7
2018-10-12T02:25:35.177Z,1002.7
2018-10-12T02:26:36.567Z,1002.7
2018-10-12T02:27:37.959Z,1002.8
2018-10-12T02:28:39.352Z,1002.8
2018-10-12T02:29:40.743Z,1002.8
2018-10-12T02:30:42.139Z,1002.7
2018-10-12T02:31:43.533Z,1002.7
2018-10-12T02:32:44.928Z,1002.7
2018-10-12T02:33:46.321Z,1002.7
2018-10-12T02:34:47.720Z,1002.7
2018-10-12T02:35:49.115Z,1002.7
2018-10-12T02:36:50.555Z,1002.8
2018-10-12T02:37:52.080Z,1002.8
2018-10-12T02:38:53.477Z,1002.9
2018-10-12T02:39:54.866Z,1002.9
2018-10-12T02:40:56.255Z,1002.9
2018-10-12T02:41:57.644Z,1003.0
2018-10-12T02:42:59.041Z,1003.0
2018-10-12T02:44:00.427Z,1003.1
2018-10-12T02:45:01.815Z,1003.0
2018-10-12T02:46:03.209Z,1003.0
2018-10-12T02:47:04.597Z,1003.0
2018-10-12T02:48:05.986Z,1003.0
2018-10-12T02:49:07.377Z,1003.0
2018-10-12T02:50:08.768Z,1003.0
2018-10-12T02:51:10.158Z,1003.0
2018-10-12T02:52:11.555Z,1003.0
2018-10-12T02:53:12.945Z,1003.0
2018-10-12T02:54:14.333Z,1003.0
2018-10-12T02:55:15.731Z,1003.0
2018-10-12T02:56:17.125Z,1003.0
2018-10-12T02:57:18.519Z,1003.0
2018-10-12T02:58:19.909Z,1002.9
2018-10-12T02:59:21.305Z,1002.9
2018-10-12T03:00:22.696Z,1003.0
2018-10-12T03:01:24.092Z,1003.0
2018-10-12T03:02:25.488Z,1003.0
2018-10-12T03:03:26.879Z,1003.0
2018-10-12T03:04:28.275Z,1003.1
2018-10-12T03:05:29.669Z,1003.1
2018-10-12T03:06:31.061Z,1003.1
2018-10-12T03:07:32.450Z,1003.1
2018-10-12T03:08:33.845Z,1003.1
2018-10-12T03:09:35.252Z,1003.1
2018-10-12T03:10:36.622Z,1003.1
2018-10-12T03:11:38.019Z,1003.1
2018-10-12T03:12:39.413Z,1003.2
2018-10-12T03:13:40.807Z,1003.2
2018-10-12T03:14:42.203Z,1003.2
2018-10-12T03:15:43.594Z,1003.3
2018-10-12T03:16:44.988Z,1003.3
2018-10-12T03:17:46.376Z,1003.3
2018-10-12T03:18:47.771Z,1003.3
2018-10-12T03:19:49.155Z,1003.4
2018-10-12T03:20:50.546Z,1003.3
2018-10-12T03:21:51.938Z,1003.4
2018-10-12T03:22:53.331Z,1003.4
2018-10-12T03:23:54.721Z,1003.4
2018-10-12T03:24:56.124Z,1003.4
2018-10-12T03:25:57.603Z,1003.4
2018-10-12T03:26:59.048Z,1003.4
2018-10-12T03:28:00.441Z,1003.4
2018-10-12T03:29:01.833Z,1003.4
2018-10-12T03:30:03.230Z,1003.4
2018-10-12T03:31:04.618Z,1003.4
2018-10-12T03:32:06.037Z,1003.4
2018-10-12T03:33:07.412Z,1003.4
2018-10-12T03:34:08.803Z,1003.5
2018-10-12T03:35:10.200Z,1003.5
2018-10-12T03:36:11.592Z,1003.5
2018-10-12T03:37:13.030Z,1003.5
2018-10-12T03:38:14.371Z,1003.5
2018-10-12T03:39:15.760Z,1003.6
2018-10-12T03:40:17.150Z,1003.5
2018-10-12T03:41:18.542Z,1003.4
2018-10-12T03:42:19.935Z,1003.4
2018-10-12T03:43:21.332Z,1003.5
2018-10-12T03:44:22.728Z,1003.5
2018-10-12T03:45:24.107Z,1003.6
2018-10-12T03:46:25.499Z,1003.5
2018-10-12T03:47:26.890Z,1003.6
2018-10-12T03:48:28.284Z,1003.5
2018-10-12T03:49:29.672Z,1003.6
2018-10-12T03:50:31.063Z,1003.5
2018-10-12T03:51:32.467Z,1003.6
2018-10-12T03:52:33.847Z,1003.5
2018-10-12T03:53:35.240Z,1003.5
2018-10-12T03:54:36.635Z,1003.5
2018-10-12T03:55:38.032Z,1003.4
2018-10-12T03:56:39.652Z,1003.5
2018-10-12T03:57:41.054Z,1003.4
2018-10-12T03:58:42.443Z,1003.5
2018-10-12T03:59:43.840Z,1003.5
2018-10-12T04:00:45.230Z,1003.5
2018-10-12T04:01:46.619Z,1003.5
2018-10-12T04:02:48.074Z,1003.6
2018-10-12T04:03:49.428Z,1003.6
2018-10-12T04:04:50.823Z,1003.6
2018-10-12T04:05:52.214Z,1003.6
2018-10-12T04:06:53.614Z,1003.6
2018-10-12T04:07:55.012Z,1003.6
2018-10-12T04:08:56.394Z,1003.6
2018-10-12T04:09:57.784Z,1003.7
2018-10-12T04:10:59.175Z,1003.7
2018-10-12T04:12:00.573Z,1003.8
2018-10-12T04:13:01.960Z,1003.8
2018-10-12T04:14:03.348Z,1003.9
2018-10-12T04:15:04.797Z,1003.9
2018-10-12T04:16:06.220Z,1003.9
2018-10-12T04:17:07.608Z,1004.0
2018-10-12T04:18:09.007Z,1004.0
2018-10-12T04:19:10.402Z,1004.0
2018-10-12T04:20:11.793Z,1004.0
2018-10-12T04:21:13.183Z,1004.0
2018-10-12T04:22:14.576Z,1004.0
2018-10-12T04:23:15.968Z,1004.0
2018-10-12T04:24:17.359Z,1004.0
2018-10-12T04:25:18.752Z,1004.0
2018-10-12T04:26:20.147Z,1004.0
2018-10-12T04:27:21.535Z,1004.0
2018-10-12T04:28:22.923Z,1004.0
2018-10-12T04:29:24.315Z,1004.0
2018-10-12T04:30:25.702Z,1004.1
2018-10-12T04:31:27.093Z,1004.1
2018-10-12T04:32:28.487Z,1004.1
2018-10-12T04:33:29.880Z,1004.0
2018-10-12T04:34:31.374Z,1004.1
2018-10-12T04:35:32.770Z,1004.1
2018-10-12T04:36:34.158Z,1004.1
2018-10-12T04:37:35.554Z,1004.1
2018-10-12T04:38:36.946Z,1004.1
2018-10-12T04:39:38.338Z,1004.1
2018-10-12T04:40:39.730Z,1004.2
2018-10-12T04:41:41.124Z,1004.2
2018-10-12T04:42:42.518Z,1004.1
2018-10-12T04:43:43.910Z,1004.2
2018-10-12T04:44:45.319Z,1004.2
2018-10-12T04:45:46.713Z,1004.3
2018-10-12T04:46:48.105Z,1004.3
2018-10-12T04:47:49.501Z,1004.2
2018-10-12T04:48:50.890Z,1004.2
2018-10-12T04:49:52.282Z,1004.2
2018-10-12T04:50:53.694Z,1004.3
2018-10-12T04:51:55.100Z,1004.3
2018-10-12T04:52:56.485Z,1004.3
2018-10-12T04:53:57.876Z,1004.3
2018-10-12T04:54:59.268Z,1004.3
2018-10-12T04:56:00.658Z,1004.3
2018-10-12T04:57:02.054Z,1004.3
2018-10-12T04:58:03.442Z,1004.3
2018-10-12T04:59:04.834Z,1004.3
2018-10-12T05:00:06.225Z,1004.4
2018-10-12T05:01:07.683Z,1004.4
2018-10-12T05:02:09.013Z,1004.5
2018-10-12T05:03:10.483Z,1004.4
2018-10-12T05:04:11.890Z,1004.4
2018-10-12T05:05:13.280Z,1004.4
2018-10-12T05:06:14.669Z,1004.4
2018-10-12T05:07:16.061Z,1004.5
2018-10-12T05:08:17.553Z,1004.5
2018-10-12T05:09:19.032Z,1004.5
2018-10-12T05:10:20.418Z,1004.5
2018-10-12T05:11:21.809Z,1004.6
2018-10-12T05:12:23.202Z,1004.6
2018-10-12T05:13:24.593Z,1004.5
2018-10-12T05:14:25.989Z,1004.5
2018-10-12T05:15:27.381Z,1004.5
2018-10-12T05:16:28.774Z,1004.5
2018-10-12T05:17:30.172Z,1004.5
2018-10-12T05:18:31.560Z,1004.5
2018-10-12T05:19:32.954Z,1004.6
2018-10-12T05:20:34.345Z,1004.5
2018-10-12T05:21:35.739Z,1004.6
2018-10-12T05:22:37.133Z,1004.6
2018-10-12T05:23:38.522Z,1004.6
2018-10-12T05:24:39.917Z,1004.6
2018-10-12T05:25:41.311Z,1004.6
2018-10-12T05:26:42.709Z,1004.6
2018-10-12T05:27:44.125Z,1004.6
2018-10-12T05:28:45.523Z,1004.5
2018-10-12T05:29:46.917Z,1004.6
2018-10-12T05:30:48.313Z,1004.5
2018-10-12T05:31:49.698Z,1004.5
2018-10-12T05:32:51.089Z,1004.6
2018-10-12T05:33:52.478Z,1004.6
2018-10-12T05:34:53.870Z,1004.6
2018-10-12T05:35:55.301Z,1004.6
2018-10-12T05:36:56.658Z,1004.6
2018-10-12T05:37:58.047Z,1004.6
2018-10-12T05:38:59.557Z,1004.6
2018-10-12T05:40:00.958Z,1004.6
2018-10-12T05:41:02.351Z,1004.6
2018-10-12T05:42:03.741Z,1004.6
2018-10-12T05:43:05.160Z,1004.6
2018-10-12T05:44:06.532Z,1004.5
2018-10-12T05:45:07.932Z,1004.5
2018-10-12T05:46:09.321Z,1004.6
2018-10-12T05:47:10.721Z,1004.6
2018-10-12T05:48:12.113Z,1004.6
2018-10-12T05:49:13.507Z,1004.6
2018-10-12T05:50:14.905Z,1004.6
2018-10-12T05:51:16.304Z,1004.6
2018-10-12T05:52:17.803Z,1004.6
2018-10-12T05:53:19.208Z,1004.6
2018-10-12T05:54:20.596Z,1004.6
2018-10-12T05:55:21.993Z,1004.6
2018-10-12T05:56:23.387Z,1004.6
2018-10-12T05:57:24.779Z,1004.7
2018-10-12T05:58:26.202Z,1004.6
2018-10-12T05:59:27.598Z,1004.6
2018-10-12T06:00:29.002Z,1004.6
2018-10-12T06:01:30.534Z,1004.7
2018-10-12T06:02:31.938Z,1004.7
2018-10-12T06:03:33.329Z,1004.8
2018-10-12T06:04:34.722Z,1004.8
2018-10-12T06:05:36.112Z,1004.8
2018-10-12T06:06:37.513Z,1004.9
2018-10-12T06:07:38.910Z,1004.9
2018-10-12T06:08:40.300Z,1004.9
2018-10-12T06:09:41.824Z,1004.9
2018-10-12T06:10:43.087Z,1005.0
2018-10-12T06:11:44.483Z,1005.0
2018-10-12T06:12:45.919Z,1005.1
2018-10-12T06:13:47.272Z,1005.1
2018-10-12T06:14:48.663Z,1005.1
2018-10-12T06:15:50.071Z,1005.1
2018-10-12T06:16:51.446Z,1005.1
2018-10-12T06:17:52.841Z,1005.1
2018-10-12T06:18:54.238Z,1005.2
2018-10-12T06:19:55.636Z,1005.2
2018-10-12T06:20:57.035Z,1005.1
2018-10-12T06:21:58.428Z,1005.2
2018-10-12T06:22:59.819Z,1005.2
2018-10-12T06:24:01.213Z,1005.2
2018-10-12T06:25:02.611Z,1005.2
2018-10-12T06:26:04.004Z,1005.2
2018-10-12T06:27:05.399Z,1005.3
2018-10-12T06:28:06.797Z,1005.3
2018-10-12T06:29:08.188Z,1005.3
2018-10-12T06:30:09.590Z,1005.3
2018-10-12T06:31:10.982Z,1005.4
2018-10-12T06:32:12.374Z,1005.5
2018-10-12T06:33:13.766Z,1005.5
2018-10-12T06:34:15.159Z,1005.5
2018-10-12T06:35:16.554Z,1005.6
2018-10-12T06:36:17.947Z,1005.6
2018-10-12T06:37:19.342Z,1005.7
2018-10-12T06:38:20.736Z,1005.7
2018-10-12T06:39:22.131Z,1005.7
2018-10-12T06:40:23.561Z,1005.7
2018-10-12T06:41:25.173Z,1005.7
2018-10-12T06:42:26.541Z,1005.7
2018-10-12T06:43:27.932Z,1005.6
2018-10-12T06:44:29.327Z,1005.5
2018-10-12T06:45:30.727Z,1005.6
2018-10-12T06:46:32.143Z,1005.7
2018-10-12T06:47:33.516Z,1005.7
2018-10-12T06:48:34.912Z,1005.7
2018-10-12T06:49:36.307Z,1005.8
2018-10-12T06:50:37.697Z,1005.8
2018-10-12T06:51:39.091Z,1005.8
2018-10-12T06:52:40.528Z,1005.8
2018-10-12T06:53:41.882Z,1005.8
2018-10-12T06:54:43.280Z,1005.8
2018-10-12T06:55:44.680Z,1005.8
2018-10-12T06:56:46.081Z,1005.7
2018-10-12T06:57:47.473Z,1005.7
2018-10-12T06:58:48.862Z,1005.8
2018-10-12T06:59:50.283Z,1005.8
2018-10-12T07:00:51.658Z,1005.8
2018-10-12T07:01:53.047Z,1005.9
2018-10-12T07:02:54.445Z,1005.9
2018-10-12T07:03:55.841Z,1005.9
2018-10-12T07:04:57.232Z,1005.8
2018-10-12T07:05:58.623Z,1005.9
2018-10-12T07:07:00.014Z,1005.9
2018-10-12T07:08:01.406Z,1005.9
2018-10-12T07:09:02.800Z,1005.9
2018-10-12T07:10:04.197Z,1005.9
2018-10-12T07:11:05.592Z,1006.0
2018-10-12T07:12:06.985Z,1005.9
2018-10-12T07:13:08.388Z,1006.0
2018-10-12T07:14:09.776Z,1005.9
2018-10-12T07:15:11.173Z,1006.0
2018-10-12T07:16:12.565Z,1006.0
2018-10-12T07:17:13.955Z,1006.0
2018-10-12T07:18:15.349Z,1006.0
2018-10-12T07:19:16.743Z,1006.0
2018-10-12T07:20:18.137Z,1006.0
2018-10-12T07:21:19.529Z,1006.1
2018-10-12T07:22:20.923Z,1006.1
2018-10-12T07:23:22.321Z,1006.1
2018-10-12T07:24:23.719Z,1006.1
2018-10-12T07:25:25.112Z,1006.1
2018-10-12T07:26:26.511Z,1006.2
2018-10-12T07:27:27.900Z,1006.1
2018-10-12T07:28:29.296Z,1006.2
2018-10-12T07:29:30.807Z,1006.2
2018-10-12T07:30:32.208Z,1006.2
2018-10-12T07:31:33.660Z,1006.2
2018-10-12T07:32:34.997Z,1006.2
2018-10-12T07:33:36.391Z,1006.2
2018-10-12T07:34:37.789Z,1006.3
2018-10-12T07:35:39.191Z,1006.3
2018-10-12T07:36:40.590Z,1006.3
2018-10-12T07:37:42.088Z,1006.3
2018-10-12T07:38:43.385Z,1006.3
2018-10-12T07:39:44.785Z,1006.3
2018-10-12T07:40:46.178Z,1006.3
2018-10-12T07:41:47.576Z,1006.4
2018-10-12T07:42:48.975Z,1006.4
2018-10-12T07:43:50.373Z,1006.4
2018-10-12T07:44:51.763Z,1006.4
2018-10-12T07:45:53.348Z,1006.4
2018-10-12T07:46:54.569Z,1006.3
2018-10-12T07:47:56.035Z,1006.4
2018-10-12T07:48:57.355Z,1006.4
2018-10-12T07:49:58.751Z,1006.4
2018-10-12T07:51:00.149Z,1006.5
2018-10-12T07:52:01.542Z,1006.4
2018-10-12T07:53:02.952Z,1006.4
2018-10-12T07:54:04.350Z,1006.5
2018-10-12T07:55:05.740Z,1006.4
2018-10-12T07:56:07.136Z,1006.4
2018-10-12T07:57:08.531Z,1006.4
2018-10-12T07:58:09.929Z,1006.4
2018-10-12T07:59:11.332Z,1006.4
2018-10-12T08:00:12.810Z,1006.5
2018-10-12T08:01:14.133Z,1006.5
2018-10-12T08:02:15.528Z,1006.5
2018-10-12T08:03:16.921Z,1006.5
2018-10-12T08:04:18.316Z,1006.5
2018-10-12T08:05:19.713Z,1006.6
2018-10-12T08:06:21.150Z,1006.6
2018-10-12T08:07:22.504Z,1006.6
2018-10-12T08:08:23.912Z,1006.6
2018-10-12T08:09:25.333Z,1006.6
2018-10-12T08:10:26.711Z,1006.6
2018-10-12T08:11:28.177Z,1006.6
2018-10-12T08:12:29.573Z,1006.7
2018-10-12T08:13:30.983Z,1006.6
2018-10-12T08:14:32.372Z,1006.6
2018-10-12T08:15:33.873Z,1006.6
2018-10-12T08:16:35.351Z,1006.6
2018-10-12T08:17:36.787Z,1006.6
2018-10-12T08:18:38.190Z,1006.6
2018-10-12T08:19:39.589Z,1006.6
2018-10-12T08:20:40.984Z,1006.6
2018-10-12T08:21:42.381Z,1006.6
2018-10-12T08:22:43.783Z,1006.6
2018-10-12T08:23:45.181Z,1006.6
2018-10-12T08:24:46.575Z,1006.6
2018-10-12T08:25:47.972Z,1006.7
2018-10-12T08:26:49.397Z,1006.7
2018-10-12T08:27:50.773Z,1006.7
2018-10-12T08:28:52.165Z,1006.7
2018-10-12T08:29:53.565Z,1006.7
2018-10-12T08:30:54.957Z,1006.7
2018-10-12T08:31:56.351Z,1006.7
2018-10-12T08:32:57.753Z,1006.7
2018-10-12T08:33:59.145Z,1006.7
2018-10-12T08:35:00.540Z,1006.7
2018-10-12T08:36:01.942Z,1006.7
2018-10-12T08:37:03.335Z,1006.8
2018-10-12T08:38:04.733Z,1006.8
2018-10-12T08:39:06.129Z,1006.8
2018-10-12T08:40:07.529Z,1006.8
2018-10-12T08:41:08.933Z,1006.9
2018-10-12T08:42:10.328Z,1006.9
2018-10-12T08:43:11.730Z,1007.0
2018-10-12T08:44:13.128Z,1006.9
2018-10-12T08:45:14.523Z,1006.9
2018-10-12T08:46:15.917Z,1006.9
2018-10-12T08:47:17.318Z,1006.9
2018-10-12T08:48:18.715Z,1007.0
2018-10-12T08:49:20.119Z,1006.9
2018-10-12T08:50:21.516Z,1006.9
2018-10-12T08:51:22.917Z,1006.9
2018-10-12T08:52:24.323Z,1007.0
2018-10-12T08:53:25.715Z,1006.9
2018-10-12T08:54:27.109Z,1006.9
2018-10-12T08:55:28.520Z,1007.0
2018-10-12T08:56:29.902Z,1007.0
2018-10-12T08:57:31.302Z,1007.0
2018-10-12T08:58:32.702Z,1007.0
2018-10-12T08:59:34.098Z,1007.0
2018-10-12T09:00:35.497Z,1007.0
2018-10-12T09:01:36.900Z,1007.0
2018-10-12T09:02:38.301Z,1007.0
2018-10-12T09:03:39.698Z,1007.0
2018-10-12T09:04:41.258Z,1007.0
2018-10-12T09:05:42.680Z,1007.0
2018-10-12T09:06:44.077Z,1007.0
2018-10-12T09:07:45.472Z,1007.0
2018-10-12T09:08:46.874Z,1006.9
2018-10-12T09:09:48.303Z,1006.9
2018-10-12T09:10:49.664Z,1007.0
2018-10-12T09:11:51.063Z,1007.0
2018-10-12T09:12:52.464Z,1007.0
2018-10-12T09:13:53.865Z,1007.0
2018-10-12T09:14:55.258Z,1007.0
2018-10-12T09:15:56.659Z,1007.0
2018-10-12T09:16:58.061Z,1007.0
2018-10-12T09:17:59.461Z,1006.9
2018-10-12T09:19:00.866Z,1006.9
2018-10-12T09:20:02.275Z,1006.9
2018-10-12T09:21:03.672Z,1007.0
2018-10-12T09:22:05.058Z,1006.9
2018-10-12T09:23:06.457Z,1007.0
2018-10-12T09:24:07.858Z,1006.9
2018-10-12T09:25:09.253Z,1007.0
2018-10-12T09:26:10.651Z,1006.9
2018-10-12T09:27:12.069Z,1007.0
2018-10-12T09:28:13.452Z,1006.9
2018-10-12T09:29:14.851Z,1007.0
2018-10-12T09:30:16.270Z,1006.9
2018-10-12T09:31:17.652Z,1006.9
2018-10-12T09:32:19.054Z,1006.9
2018-10-12T09:33:20.453Z,1006.9
2018-10-12T09:34:21.855Z,1007.0
2018-10-12T09:35:23.253Z,1006.9
2018-10-12T09:36:24.669Z,1006.8
2018-10-12T09:37:26.044Z,1006.8
2018-10-12T09:38:27.445Z,1006.8
2018-10-12T09:39:28.842Z,1006.8
2018-10-12T09:40:30.247Z,1006.8
2018-10-12T09:41:31.649Z,1006.8
2018-10-12T09:42:33.042Z,1006.8
2018-10-12T09:43:34.444Z,1006.8
2018-10-12T09:44:35.849Z,1006.8
2018-10-12T09:45:37.255Z,1006.8
2018-10-12T09:46:38.654Z,1006.8
2018-10-12T09:47:40.056Z,1006.8
2018-10-12T09:48:41.455Z,1006.8
2018-10-12T09:49:42.856Z,1006.7
2018-10-12T09:50:44.261Z,1006.9
2018-10-12T09:51:45.787Z,1006.9
2018-10-12T09:52:47.234Z,1006.9
2018-10-12T09:53:48.634Z,1007.0
2018-10-12T09:54:50.039Z,1006.9
2018-10-12T09:55:51.494Z,1007.0
2018-10-12T09:56:52.849Z,1007.0
2018-10-12T09:57:54.254Z,1006.9
2018-10-12T09:58:55.658Z,1006.7
2018-10-12T09:59:57.055Z,1006.8
2018-10-12T10:00:58.464Z,1006.9
2018-10-12T10:02:00.006Z,1006.9
2018-10-12T10:03:01.270Z,1006.8
2018-10-12T10:04:02.672Z,1006.9
2018-10-12T10:05:04.080Z,1006.9
2018-10-12T10:06:05.489Z,1006.8
2018-10-12T10:07:06.897Z,1006.8
2018-10-12T10:08:08.336Z,1006.8
2018-10-12T10:09:09.711Z,1006.8
2018-10-12T10:10:11.118Z,1006.7
2018-10-12T10:11:12.522Z,1006.7
2018-10-12T10:12:13.929Z,1006.6
2018-10-12T10:13:15.334Z,1006.7
2018-10-12T10:14:16.746Z,1006.6
2018-10-12T10:15:18.160Z,1006.6
2018-10-12T10:16:19.553Z,1006.6
2018-10-12T10:17:20.961Z,1006.6
2018-10-12T10:18:22.773Z,1006.6
2018-10-12T10:19:23.784Z,1006.7
2018-10-12T10:20:25.185Z,1006.7
2018-10-12T10:21:26.593Z,1006.7
2018-10-12T10:22:28.044Z,1006.6
2018-10-12T10:23:29.415Z,1006.6
2018-10-12T10:24:30.866Z,1006.6
2018-10-12T10:25:32.278Z,1006.6
2018-10-12T10:26:33.679Z,1006.6
2018-10-12T10:27:35.092Z,1006.7
2018-10-12T10:28:36.501Z,1006.6
2018-10-12T10:29:37.909Z,1006.7
2018-10-12T10:30:39.319Z,1006.6
2018-10-12T10:31:40.726Z,1006.6
2018-10-12T10:32:42.131Z,1006.6
2018-10-12T10:33:43.537Z,1006.6
2018-10-12T10:34:44.947Z,1006.6
2018-10-12T10:35:46.354Z,1006.6
2018-10-12T10:36:48.056Z,1006.5
2018-10-12T10:37:49.344Z,1006.6
2018-10-12T10:38:50.768Z,1006.5
2018-10-12T10:39:52.170Z,1006.5
2018-10-12T10:40:53.580Z,1006.5
2018-10-12T10:41:54.994Z,1006.5
2018-10-12T10:42:56.404Z,1006.6
2018-10-12T10:43:57.817Z,1006.5
2018-10-12T10:44:59.229Z,1006.5
2018-10-12T10:46:00.642Z,1006.5
2018-10-12T10:47:02.045Z,1006.5
2018-10-12T10:48:03.453Z,1006.4
2018-10-12T10:49:04.861Z,1006.4
2018-10-12T10:50:06.270Z,1006.4
2018-10-12T10:51:07.677Z,1006.4
2018-10-12T10:52:09.089Z,1006.4
2018-10-12T10:53:10.493Z,1006.5
2018-10-12T10:54:11.904Z,1006.4
2018-10-12T10:55:13.312Z,1006.3
2018-10-12T10:56:14.719Z,1006.3
2018-10-12T10:57:16.132Z,1006.3
2018-10-12T10:58:17.647Z,1006.3
2018-10-12T10:59:19.027Z,1006.3
2018-10-12T11:00:20.450Z,1006.3
2018-10-12T11:01:21.844Z,1006.3
2018-10-12T11:02:23.260Z,1006.3
2018-10-12T11:03:24.655Z,1006.3
2018-10-12T11:04:26.062Z,1006.3
2018-10-12T11:05:27.464Z,1006.3
2018-10-12T11:06:28.943Z,1006.3
2018-10-12T11:07:30.277Z,1006.3
2018-10-12T11:08:31.688Z,1006.4
2018-10-12T11:09:33.096Z,1006.3
2018-10-12T11:10:34.500Z,1006.4
2018-10-12T11:11:35.906Z,1006.3
2018-10-12T11:12:37.393Z,1006.3
2018-10-12T11:13:38.722Z,1006.3
2018-10-12T11:14:40.129Z,1006.3
2018-10-12T11:15:41.530Z,1006.3
2018-10-12T11:16:42.936Z,1006.3
2018-10-12T11:17:44.344Z,1006.2
2018-10-12T11:18:45.752Z,1006.3
2018-10-12T11:19:47.159Z,1006.2
2018-10-12T11:20:48.564Z,1006.3
2018-10-12T11:21:49.969Z,1006.3
2018-10-12T11:22:51.594Z,1006.3
2018-10-12T11:23:52.995Z,1006.3
2018-10-12T11:24:54.399Z,1006.3
2018-10-12T11:25:55.811Z,1006.3
2018-10-12T11:26:57.283Z,1006.3
2018-10-12T11:27:58.623Z,1006.3
2018-10-12T11:29:00.026Z,1006.3
2018-10-12T11:30:01.429Z,1006.4
2018-10-12T11:31:02.828Z,1006.4
2018-10-12T11:32:04.235Z,1006.5
2018-10-12T11:33:05.692Z,1006.4
2018-10-12T11:34:07.047Z,1006.5
2018-10-12T11:35:08.455Z,1006.4
2018-10-12T11:36:10.132Z,1006.4
2018-10-12T11:37:11.548Z,1006.4
2018-10-12T11:38:12.991Z,1006.3
2018-10-12T11:39:14.644Z,1006.4
2018-10-12T11:40:16.037Z,1006.4
2018-10-12T11:41:17.448Z,1006.4
2018-10-12T11:42:18.861Z,1006.3
2018-10-12T11:43:20.267Z,1006.4
2018-10-12T11:44:21.677Z,1006.3
2018-10-12T11:45:23.178Z,1006.3
2018-10-12T11:46:24.480Z,1006.3
2018-10-12T11:47:25.881Z,1006.3
2018-10-12T11:48:27.286Z,1006.3
2018-10-12T11:49:28.687Z,1006.3
2018-10-12T11:50:30.093Z,1006.3
2018-10-12T11:51:31.491Z,1006.2
2018-10-12T11:52:32.891Z,1006.2
2018-10-12T11:53:34.292Z,1006.3
2018-10-12T11:54:35.695Z,1006.3
2018-10-12T11:55:37.101Z,1006.3
2018-10-12T11:56:38.501Z,1006.3
2018-10-12T11:57:39.905Z,1006.3
2018-10-12T11:58:41.307Z,1006.4
2018-10-12T11:59:42.706Z,1006.4
2018-10-12T12:00:44.115Z,1006.3
2018-10-12T12:01:45.508Z,1006.3
2018-10-12T12:02:46.917Z,1006.3
2018-10-12T12:03:48.318Z,1006.4
2018-10-12T12:04:49.723Z,1006.3
2018-10-12T12:05:51.128Z,1006.4
2018-10-12T12:06:52.675Z,1006.3
2018-10-12T12:07:54.152Z,1006.3
2018-10-12T12:08:55.553Z,1006.4
2018-10-12T12:09:56.953Z,1006.3
2018-10-12T12:10:58.360Z,1006.4
2018-10-12T12:11:59.765Z,1006.4
2018-10-12T12:13:01.163Z,1006.4
2018-10-12T12:14:02.568Z,1006.3
2018-10-12T12:15:03.969Z,1006.3
2018-10-12T12:16:05.375Z,1006.4
2018-10-12T12:17:06.777Z,1006.4
2018-10-12T12:18:08.178Z,1006.4
2018-10-12T12:19:09.633Z,1006.4
2018-10-12T12:20:10.981Z,1006.3
2018-10-12T12:21:12.383Z,1006.4
2018-10-12T12:22:13.780Z,1006.4
2018-10-12T12:23:15.188Z,1006.4
2018-10-12T12:24:16.615Z,1006.4
2018-10-12T12:25:18.011Z,1006.4
2018-10-12T12:26:19.423Z,1006.4
2018-10-12T12:27:20.829Z,1006.3
2018-10-12T12:28:22.233Z,1006.4
2018-10-12T12:29:23.636Z,1006.3
2018-10-12T12:30:25.035Z,1006.3
2018-10-12T12:31:26.434Z,1006.4
2018-10-12T12:32:27.840Z,1006.4
2018-10-12T12:33:29.244Z,1006.3
2018-10-12T12:34:30.704Z,1006.3
2018-10-12T12:35:32.286Z,1006.3
2018-10-12T12:36:33.445Z,1006.3
2018-10-12T12:37:34.849Z,1006.3
2018-10-12T12:38:36.250Z,1006.4
2018-10-12T12:39:37.658Z,1006.3
2018-10-12T12:40:39.054Z,1006.4
2018-10-12T12:41:40.457Z,1006.4
2018-10-12T12:42:41.856Z,1006.4
2018-10-12T12:43:43.254Z,1006.4
2018-10-12T12:44:44.652Z,1006.4
2018-10-12T12:45:46.060Z,1006.4